createdAt,value
2023-05-06T00:00:11.084Z,99912.68
2023-05-06T00:01:11.090Z,99915.99
2023-05-06T00:02:11.109Z,99912.84
2023-05-06T00:03:11.178Z,99915.32
2023-05-06T00:04:11.130Z,99915.38
2023-05-06T00:05:11.458Z,99914.54
2023-05-06T00:06:11.082Z,99913.73
2023-05-06T00:07:11.073Z,99918.24
2023-05-06T00:08:11.077Z,99916.25
2023-05-06T00:09:11.079Z,99912.63
2023-05-06T00:10:11.079Z,99915.17
2023-05-06T00:11:11.077Z,99913.12
2023-05-06T00:12:11.080Z,99911.85
2023-05-06T00:13:11.127Z,99912.04
2023-05-06T00:14:11.080Z,99908.68
2023-05-06T00:15:11.299Z,99907.26
2023-05-06T00:16:11.092Z,99910.78
2023-05-06T00:17:11.081Z,99907.65
2023-05-06T00:18:11.084Z,99906.41
2023-05-06T00:19:11.079Z,99908.46
2023-05-06T00:20:11.082Z,99904.05
2023-05-06T00:21:11.076Z,99904.35
2023-05-06T00:22:11.086Z,99902.09
2023-05-06T00:23:11.078Z,99904.28
2023-05-06T00:24:11.086Z,99904.40
2023-05-06T00:25:11.318Z,99902.15
2023-05-06T00:26:11.078Z,99902.52
2023-05-06T00:27:11.081Z,99902.96
2023-05-06T00:28:11.078Z,99904.35
2023-05-06T00:29:11.082Z,99904.02
2023-05-06T00:30:11.086Z,99906.75
2023-05-06T00:31:11.080Z,99907.38
2023-05-06T00:32:11.264Z,99907.89
2023-05-06T00:33:11.150Z,99908.18
2023-05-06T00:34:11.075Z,99906.75
2023-05-06T00:35:11.239Z,99906.77
2023-05-06T00:36:11.097Z,99907.03
2023-05-06T00:37:11.080Z,99907.68
2023-05-06T00:38:12.101Z,99903.18
2023-05-06T00:39:11.090Z,99901.66
2023-05-06T00:40:11.082Z,99901.48
2023-05-06T00:41:11.084Z,99902.38
2023-05-06T00:42:11.089Z,99901.48
2023-05-06T00:43:11.103Z,99900.77
2023-05-06T00:44:11.093Z,99901.64
2023-05-06T00:45:11.362Z,99901.19
2023-05-06T00:46:11.171Z,99898.45
2023-05-06T00:47:11.081Z,99899.54
2023-05-06T00:48:11.150Z,99896.97
2023-05-06T00:49:11.081Z,99896.41
2023-05-06T00:50:11.092Z,99894.79
2023-05-06T00:51:11.094Z,99891.86
2023-05-06T00:52:11.082Z,99895.98
2023-05-06T00:53:11.089Z,99891.98
2023-05-06T00:54:11.096Z,99895.30
2023-05-06T00:55:11.158Z,99892.54
2023-05-06T00:56:11.082Z,99894.49
2023-05-06T00:57:11.092Z,99892.64
2023-05-06T00:58:11.087Z,99895.37
2023-05-06T00:59:11.081Z,99889.39
2023-05-06T01:00:11.085Z,99891.64
2023-05-06T01:01:11.078Z,99891.81
2023-05-06T01:02:11.105Z,99887.15
2023-05-06T01:03:11.110Z,99886.87
2023-05-06T01:04:11.122Z,99886.54
2023-05-06T01:05:11.367Z,99885.93
2023-05-06T01:06:19.063Z,99884.18
2023-05-06T01:07:22.071Z,99882.27
2023-05-06T01:08:19.067Z,99883.90
2023-05-06T01:09:25.061Z,99883.64
2023-05-06T01:10:21.067Z,99881.28
2023-05-06T01:11:22.104Z,99878.86
2023-05-06T01:12:22.067Z,99880.14
2023-05-06T01:13:16.195Z,99879.47
2023-05-06T01:14:21.065Z,99875.61
2023-05-06T01:15:20.068Z,99881.06
2023-05-06T01:16:12.070Z,99878.57
2023-05-06T01:17:12.105Z,99876.62
2023-05-06T01:18:11.070Z,99875.57
2023-05-06T01:19:21.067Z,99875.34
2023-05-06T01:20:12.081Z,99873.53
2023-05-06T01:21:11.067Z,99876.55
2023-05-06T01:22:11.104Z,99875.52
2023-05-06T01:23:14.081Z,99877.00
2023-05-06T01:24:11.067Z,99879.20
2023-05-06T01:25:19.077Z,99879.06
2023-05-06T01:26:11.078Z,99878.59
2023-05-06T01:27:11.081Z,99879.40
2023-05-06T01:28:14.068Z,99879.84
2023-05-06T01:29:11.063Z,99880.52
2023-05-06T01:30:11.070Z,99882.46
2023-05-06T01:31:17.197Z,99884.46
2023-05-06T01:32:22.212Z,99880.38
2023-05-06T01:33:20.066Z,99882.42
2023-05-06T01:34:18.076Z,99881.64
2023-05-06T01:35:19.077Z,99882.57
2023-05-06T01:36:19.072Z,99880.93
2023-05-06T01:37:22.070Z,99882.87
2023-05-06T01:38:19.066Z,99882.36
2023-05-06T01:39:16.070Z,99886.66
2023-05-06T01:40:11.080Z,99885.23
2023-05-06T01:41:13.068Z,99881.86
2023-05-06T01:42:13.072Z,99886.62
2023-05-06T01:43:11.082Z,99884.68
2023-05-06T01:44:11.078Z,99883.86
2023-05-06T01:45:11.259Z,99882.69
2023-05-06T01:46:15.083Z,99882.14
2023-05-06T01:47:11.081Z,99881.04
2023-05-06T01:48:11.072Z,99879.35
2023-05-06T01:49:11.073Z,99882.86
2023-05-06T01:50:11.069Z,99877.94
2023-05-06T01:51:11.072Z,99882.69
2023-05-06T01:52:11.076Z,99881.45
2023-05-06T01:53:11.073Z,99877.48
2023-05-06T01:54:11.079Z,99880.11
2023-05-06T01:55:11.271Z,99881.48
2023-05-06T01:56:11.075Z,99877.98
2023-05-06T01:57:11.083Z,99879.62
2023-05-06T01:58:11.091Z,99881.23
2023-05-06T01:59:11.104Z,99878.59
2023-05-06T02:00:11.082Z,99879.08
2023-05-06T02:01:11.119Z,99879.72
2023-05-06T02:02:11.075Z,99880.89
2023-05-06T02:03:11.187Z,99879.91
2023-05-06T02:04:11.074Z,99879.36
2023-05-06T02:05:11.310Z,99880.61
2023-05-06T02:06:11.077Z,99882.11
2023-05-06T02:07:11.076Z,99881.21
2023-05-06T02:08:11.084Z,99879.36
2023-05-06T02:09:11.074Z,99882.67
2023-05-06T02:10:11.075Z,99882.92
2023-05-06T02:11:11.081Z,99882.61
2023-05-06T02:12:11.071Z,99882.61
2023-05-06T02:13:11.108Z,99883.80
2023-05-06T02:14:11.086Z,99881.45
2023-05-06T02:15:11.284Z,99878.46
2023-05-06T02:16:11.101Z,99881.72
2023-05-06T02:17:11.094Z,99882.81
2023-05-06T02:18:11.074Z,99880.01
2023-05-06T02:19:11.078Z,99882.86
2023-05-06T02:20:11.085Z,99878.31
2023-05-06T02:21:11.076Z,99880.38
2023-05-06T02:22:11.076Z,99876.95
2023-05-06T02:23:11.082Z,99878.08
2023-05-06T02:24:11.092Z,99878.22
2023-05-06T02:25:11.274Z,99880.36
2023-05-06T02:26:11.077Z,99881.15
2023-05-06T02:27:11.091Z,99881.45
2023-05-06T02:28:11.072Z,99880.67
2023-05-06T02:29:11.075Z,99882.47
2023-05-06T02:30:11.087Z,99881.55
2023-05-06T02:31:12.113Z,99880.40
2023-05-06T02:32:11.078Z,99883.31
2023-05-06T02:33:11.091Z,99884.53
2023-05-06T02:34:11.080Z,99885.78
2023-05-06T02:35:11.316Z,99879.40
2023-05-06T02:36:11.089Z,99883.87
2023-05-06T02:37:11.079Z,99881.12
2023-05-06T02:38:11.118Z,99881.06
2023-05-06T02:39:11.084Z,99881.10
2023-05-06T02:40:11.076Z,99879.20
2023-05-06T02:41:11.079Z,99883.47
2023-05-06T02:42:12.206Z,99879.29
2023-05-06T02:43:11.087Z,99882.32
2023-05-06T02:44:11.080Z,99882.19
2023-05-06T02:45:11.376Z,99880.71
2023-05-06T02:46:11.102Z,99879.90
2023-05-06T02:47:11.080Z,99881.32
2023-05-06T02:48:11.089Z,99882.52
2023-05-06T02:49:11.078Z,99880.98
2023-05-06T02:50:11.120Z,99879.49
2023-05-06T02:51:11.089Z,99882.72
2023-05-06T02:52:11.082Z,99881.71
2023-05-06T02:53:11.082Z,99883.52
2023-05-06T02:54:11.088Z,99880.67
2023-05-06T02:55:11.344Z,99879.43
2023-05-06T02:56:11.093Z,99880.71
2023-05-06T02:57:11.085Z,99878.67
2023-05-06T02:58:11.080Z,99875.31
2023-05-06T02:59:11.080Z,99875.81
2023-05-06T03:00:11.123Z,99873.18
2023-05-06T03:01:11.154Z,99873.96
2023-05-06T03:02:11.085Z,99872.54
2023-05-06T03:03:11.093Z,99873.45
2023-05-06T03:04:11.098Z,99873.41
2023-05-06T03:05:11.372Z,99869.39
2023-05-06T03:06:11.080Z,99873.76
2023-05-06T03:07:11.083Z,99873.77
2023-05-06T03:08:11.078Z,99875.52
2023-05-06T03:09:11.083Z,99870.04
2023-05-06T03:10:11.086Z,99871.82
2023-05-06T03:11:11.084Z,99871.71
2023-05-06T03:12:11.082Z,99872.14
2023-05-06T03:13:11.122Z,99871.75
2023-05-06T03:14:11.076Z,99867.75
2023-05-06T03:15:11.362Z,99868.35
2023-05-06T03:16:13.120Z,99868.35
2023-05-06T03:17:11.080Z,99865.18
2023-05-06T03:18:11.117Z,99865.98
2023-05-06T03:19:11.091Z,99865.23
2023-05-06T03:20:11.081Z,99861.73
2023-05-06T03:21:11.125Z,99864.02
2023-05-06T03:22:11.091Z,99863.14
2023-05-06T03:23:11.081Z,99862.64
2023-05-06T03:24:11.085Z,99862.98
2023-05-06T03:25:11.376Z,99859.24
2023-05-06T03:26:11.087Z,99861.31
2023-05-06T03:27:11.089Z,99856.27
2023-05-06T03:28:11.091Z,99859.41
2023-05-06T03:29:11.095Z,99857.20
2023-05-06T03:30:11.077Z,99856.70
2023-05-06T03:31:11.149Z,99856.20
2023-05-06T03:32:11.084Z,99857.50
2023-05-06T03:33:11.083Z,99856.72
2023-05-06T03:34:11.096Z,99856.70
2023-05-06T03:35:11.233Z,99854.67
2023-05-06T03:36:11.084Z,99855.84
2023-05-06T03:37:11.085Z,99858.95
2023-05-06T03:38:11.084Z,99858.45
2023-05-06T03:39:11.079Z,99856.05
2023-05-06T03:40:11.086Z,99855.65
2023-05-06T03:41:11.086Z,99855.48
2023-05-06T03:42:11.091Z,99856.11
2023-05-06T03:43:11.085Z,99854.09
2023-05-06T03:44:11.091Z,99852.27
2023-05-06T03:45:11.297Z,99853.40
2023-05-06T03:46:11.105Z,99854.75
2023-05-06T03:47:11.087Z,99848.42
2023-05-06T03:48:11.172Z,99853.80
2023-05-06T03:49:11.124Z,99847.34
2023-05-06T03:50:11.094Z,99848.12
2023-05-06T03:51:11.082Z,99848.43
2023-05-06T03:52:11.087Z,99847.04
2023-05-06T03:53:11.106Z,99849.45
2023-05-06T03:54:11.089Z,99850.03
2023-05-06T03:55:11.348Z,99844.07
2023-05-06T03:56:11.086Z,99845.67
2023-05-06T03:57:11.127Z,99848.87
2023-05-06T03:58:11.085Z,99850.22
2023-05-06T03:59:11.125Z,99847.71
2023-05-06T04:00:11.084Z,99850.80
2023-05-06T04:01:11.059Z,99851.55
2023-05-06T04:02:11.078Z,99846.67
2023-05-06T04:03:11.134Z,99851.62
2023-05-06T04:04:11.087Z,99848.13
2023-05-06T04:05:11.281Z,99852.71
2023-05-06T04:06:11.066Z,99857.38
2023-05-06T04:07:11.065Z,99855.50
2023-05-06T04:08:11.072Z,99857.04
2023-05-06T04:09:11.058Z,99857.75
2023-05-06T04:10:11.065Z,99862.16
2023-05-06T04:11:11.139Z,99863.02
2023-05-06T04:12:11.068Z,99862.43
2023-05-06T04:13:11.116Z,99858.54
2023-05-06T04:14:11.068Z,99858.07
2023-05-06T04:15:11.310Z,99862.54
2023-05-06T04:16:11.082Z,99861.70
2023-05-06T04:17:11.070Z,99862.53
2023-05-06T04:18:11.086Z,99862.09
2023-05-06T04:19:11.058Z,99858.51
2023-05-06T04:20:11.067Z,99862.54
2023-05-06T04:21:11.064Z,99862.14
2023-05-06T04:22:11.057Z,99863.07
2023-05-06T04:23:11.062Z,99863.19
2023-05-06T04:24:11.065Z,99863.97
2023-05-06T04:25:11.339Z,99866.80
2023-05-06T04:26:11.068Z,99863.66
2023-05-06T04:27:11.063Z,99863.04
2023-05-06T04:28:13.061Z,99862.80
2023-05-06T04:29:11.064Z,99864.57
2023-05-06T04:30:11.091Z,99862.69
2023-05-06T04:31:12.084Z,99861.18
2023-05-06T04:32:11.142Z,99863.71
2023-05-06T04:33:11.106Z,99862.18
2023-05-06T04:34:11.067Z,99861.30
2023-05-06T04:35:11.315Z,99860.21
2023-05-06T04:36:11.074Z,99866.04
2023-05-06T04:37:11.069Z,99863.82
2023-05-06T04:38:11.065Z,99862.77
2023-05-06T04:39:12.071Z,99862.71
2023-05-06T04:40:11.068Z,99862.50
2023-05-06T04:41:11.069Z,99859.21
2023-05-06T04:42:11.069Z,99861.53
2023-05-06T04:43:11.069Z,99859.72
2023-05-06T04:44:11.068Z,99863.91
2023-05-06T04:45:11.268Z,99864.41
2023-05-06T04:46:11.175Z,99865.28
2023-05-06T04:47:11.117Z,99864.86
2023-05-06T04:48:11.068Z,99864.63
2023-05-06T04:49:12.419Z,99866.22
2023-05-06T04:50:11.087Z,99864.94
2023-05-06T04:51:11.076Z,99864.90
2023-05-06T04:52:11.081Z,99864.03
2023-05-06T04:53:11.076Z,99864.30
2023-05-06T04:54:11.078Z,99862.53
2023-05-06T04:55:11.274Z,99864.02
2023-05-06T04:56:11.071Z,99861.39
2023-05-06T04:57:11.073Z,99858.91
2023-05-06T04:58:11.073Z,99862.41
2023-05-06T04:59:11.078Z,99866.80
2023-05-06T05:00:11.252Z,99868.23
2023-05-06T05:01:11.130Z,99867.86
2023-05-06T05:02:11.093Z,99867.78
2023-05-06T05:03:11.144Z,99865.08
2023-05-06T05:04:11.082Z,99864.30
2023-05-06T05:05:11.213Z,99868.01
2023-05-06T05:06:11.074Z,99868.82
2023-05-06T05:07:11.096Z,99867.48
2023-05-06T05:08:11.071Z,99867.50
2023-05-06T05:09:11.082Z,99869.60
2023-05-06T05:10:11.073Z,99870.36
2023-05-06T05:11:11.088Z,99868.99
2023-05-06T05:12:11.081Z,99870.86
2023-05-06T05:13:11.144Z,99873.86
2023-05-06T05:14:11.073Z,99875.06
2023-05-06T05:15:11.325Z,99875.01
2023-05-06T05:16:11.093Z,99874.18
2023-05-06T05:17:11.109Z,99877.86
2023-05-06T05:18:11.147Z,99873.75
2023-05-06T05:19:11.076Z,99875.58
2023-05-06T05:20:11.072Z,99875.47
2023-05-06T05:21:11.096Z,99877.88
2023-05-06T05:22:11.082Z,99876.56
2023-05-06T05:23:11.071Z,99876.86
2023-05-06T05:24:11.079Z,99873.19
2023-05-06T05:25:11.274Z,99875.64
2023-05-06T05:26:11.075Z,99878.83
2023-05-06T05:27:11.081Z,99880.07
2023-05-06T05:28:11.086Z,99880.54
2023-05-06T05:29:11.075Z,99881.51
2023-05-06T05:30:11.099Z,99882.09
2023-05-06T05:31:11.137Z,99882.14
2023-05-06T05:32:11.083Z,99883.77
2023-05-06T05:33:11.229Z,99883.18
2023-05-06T05:34:11.085Z,99885.63
2023-05-06T05:35:11.396Z,99887.22
2023-05-06T05:36:11.071Z,99885.42
2023-05-06T05:37:11.084Z,99887.83
2023-05-06T05:38:11.079Z,99888.60
2023-05-06T05:39:11.076Z,99888.99
2023-05-06T05:40:11.078Z,99887.91
2023-05-06T05:41:11.078Z,99891.41
2023-05-06T05:42:11.082Z,99890.36
2023-05-06T05:43:11.083Z,99888.13
2023-05-06T05:44:11.080Z,99891.14
2023-05-06T05:45:11.211Z,99892.07
2023-05-06T05:46:11.099Z,99888.52
2023-05-06T05:47:11.110Z,99889.89
2023-05-06T05:48:11.078Z,99889.29
2023-05-06T05:49:11.077Z,99888.41
2023-05-06T05:50:11.086Z,99894.55
2023-05-06T05:51:11.098Z,99892.87
2023-05-06T05:52:11.080Z,99892.04
2023-05-06T05:53:11.082Z,99895.45
2023-05-06T05:54:11.075Z,99896.25
2023-05-06T05:55:11.148Z,99895.66
2023-05-06T05:56:11.081Z,99895.80
2023-05-06T05:57:11.076Z,99902.29
2023-05-06T05:58:11.081Z,99903.47
2023-05-06T05:59:11.081Z,99903.42
2023-05-06T06:00:13.310Z,99902.93
2023-05-06T06:01:11.096Z,99904.82
2023-05-06T06:02:11.083Z,99901.91
2023-05-06T06:03:11.176Z,99903.13
2023-05-06T06:04:11.230Z,99904.89
2023-05-06T06:05:11.193Z,99905.59
2023-05-06T06:06:11.083Z,99899.91
2023-05-06T06:07:11.076Z,99906.20
2023-05-06T06:08:11.089Z,99907.66
2023-05-06T06:09:11.085Z,99907.01
2023-05-06T06:10:11.082Z,99906.52
2023-05-06T06:11:11.082Z,99906.33
2023-05-06T06:12:11.081Z,99905.89
2023-05-06T06:13:11.136Z,99903.00
2023-05-06T06:14:11.082Z,99904.25
2023-05-06T06:15:11.333Z,99900.84
2023-05-06T06:16:11.113Z,99904.25
2023-05-06T06:17:11.084Z,99899.36
2023-05-06T06:18:12.082Z,99902.05
2023-05-06T06:19:11.087Z,99900.73
2023-05-06T06:20:11.095Z,99897.50
2023-05-06T06:21:11.092Z,99902.61
2023-05-06T06:22:11.094Z,99903.75
2023-05-06T06:23:11.090Z,99901.07
2023-05-06T06:24:11.097Z,99904.32
2023-05-06T06:25:11.275Z,99901.33
2023-05-06T06:26:12.348Z,99902.93
2023-05-06T06:27:11.089Z,99905.46
2023-05-06T06:28:11.077Z,99903.77
2023-05-06T06:29:11.086Z,99906.62
2023-05-06T06:30:11.107Z,99905.30
2023-05-06T06:31:11.132Z,99904.09
2023-05-06T06:32:11.237Z,99906.01
2023-05-06T06:33:11.090Z,99906.02
2023-05-06T06:34:11.084Z,99906.60
2023-05-06T06:35:11.320Z,99907.66
2023-05-06T06:36:11.107Z,99910.95
2023-05-06T06:37:11.081Z,99907.48
2023-05-06T06:38:11.087Z,99905.84
2023-05-06T06:39:11.103Z,99905.58
2023-05-06T06:40:11.089Z,99905.77
2023-05-06T06:41:11.082Z,99904.03
2023-05-06T06:42:11.094Z,99905.34
2023-05-06T06:43:11.088Z,99905.86
2023-05-06T06:44:11.088Z,99907.11
2023-05-06T06:45:11.323Z,99909.86
2023-05-06T06:46:11.114Z,99909.93
2023-05-06T06:47:11.087Z,99908.25
2023-05-06T06:48:11.112Z,99908.37
2023-05-06T06:49:11.083Z,99907.34
2023-05-06T06:50:11.087Z,99909.87
2023-05-06T06:51:11.108Z,99910.12
2023-05-06T06:52:11.089Z,99910.80
2023-05-06T06:53:11.086Z,99914.59
2023-05-06T06:54:11.094Z,99913.28
2023-05-06T06:55:11.417Z,99917.54
2023-05-06T06:56:12.101Z,99916.93
2023-05-06T06:57:11.101Z,99917.43
2023-05-06T06:58:11.085Z,99913.68
2023-05-06T06:59:11.090Z,99917.45
2023-05-06T07:00:11.098Z,99918.54
2023-05-06T07:01:11.168Z,99917.22
2023-05-06T07:02:11.063Z,99915.80
2023-05-06T07:03:11.121Z,99918.74
2023-05-06T07:04:11.089Z,99916.89
2023-05-06T07:05:11.257Z,99919.52
2023-05-06T07:06:11.077Z,99917.91
2023-05-06T07:07:11.078Z,99920.34
2023-05-06T07:08:11.065Z,99917.54
2023-05-06T07:09:11.071Z,99919.68
2023-05-06T07:10:11.057Z,99919.29
2023-05-06T07:11:11.064Z,99916.68
2023-05-06T07:12:11.075Z,99916.06
2023-05-06T07:13:11.094Z,99917.48
2023-05-06T07:14:11.062Z,99916.16
2023-05-06T07:15:11.281Z,99913.23
2023-05-06T07:16:11.068Z,99916.56
2023-05-06T07:17:11.074Z,99917.46
2023-05-06T07:18:11.126Z,99915.48
2023-05-06T07:19:11.062Z,99913.10
2023-05-06T07:20:11.086Z,99915.30
2023-05-06T07:21:11.072Z,99915.34
2023-05-06T07:22:11.065Z,99915.02
2023-05-06T07:23:11.056Z,99916.12
2023-05-06T07:24:11.066Z,99911.45
2023-05-06T07:25:11.376Z,99913.66
2023-05-06T07:26:11.062Z,99911.64
2023-05-06T07:27:11.082Z,99916.04
2023-05-06T07:28:11.067Z,99915.00
2023-05-06T07:29:11.062Z,99909.71
2023-05-06T07:30:11.064Z,99911.36
2023-05-06T07:31:11.160Z,99913.40
2023-05-06T07:32:11.067Z,99910.32
2023-05-06T07:33:11.073Z,99912.24
2023-05-06T07:34:11.074Z,99911.51
2023-05-06T07:35:11.176Z,99913.94
2023-05-06T07:36:11.063Z,99914.64
2023-05-06T07:37:11.073Z,99916.05
2023-05-06T07:38:11.067Z,99916.16
2023-05-06T07:39:11.059Z,99919.95
2023-05-06T07:40:11.072Z,99916.73
2023-05-06T07:41:11.067Z,99916.62
2023-05-06T07:42:11.068Z,99918.13
2023-05-06T07:43:11.068Z,99918.92
2023-05-06T07:44:11.070Z,99919.87
2023-05-06T07:45:11.312Z,99918.84
2023-05-06T07:46:11.100Z,99916.38
2023-05-06T07:47:11.216Z,99919.60
2023-05-06T07:48:11.087Z,99916.13
2023-05-06T07:49:11.065Z,99915.29
2023-05-06T07:50:11.079Z,99914.76
2023-05-06T07:51:11.067Z,99916.57
2023-05-06T07:52:11.066Z,99911.26
2023-05-06T07:53:11.069Z,99911.42
2023-05-06T07:54:11.068Z,99911.80
2023-05-06T07:55:11.270Z,99913.24
2023-05-06T07:56:11.074Z,99910.43
2023-05-06T07:57:11.068Z,99914.68
2023-05-06T07:58:11.094Z,99914.07
2023-05-06T07:59:11.075Z,99915.41
2023-05-06T08:00:11.104Z,99918.59
2023-05-06T08:01:11.082Z,99920.41
2023-05-06T08:02:11.113Z,99914.40
2023-05-06T08:03:11.129Z,99912.81
2023-05-06T08:04:11.220Z,99914.38
2023-05-06T08:05:11.380Z,99920.66
2023-05-06T08:06:11.084Z,99918.22
2023-05-06T08:07:11.075Z,99916.91
2023-05-06T08:08:11.082Z,99917.89
2023-05-06T08:09:12.902Z,99920.82
2023-05-06T08:10:13.068Z,99920.67
2023-05-06T08:11:11.084Z,99918.14
2023-05-06T08:12:11.082Z,99914.66
2023-05-06T08:13:11.095Z,99919.42
2023-05-06T08:14:11.074Z,99921.70
2023-05-06T08:15:11.332Z,99918.30
2023-05-06T08:16:11.095Z,99920.48
2023-05-06T08:17:11.083Z,99922.71
2023-05-06T08:18:21.509Z,99922.25
2023-05-06T08:19:13.059Z,99924.59
2023-05-06T08:20:11.075Z,99925.34
2023-05-06T08:21:11.086Z,99926.89
2023-05-06T08:22:11.075Z,99927.35
2023-05-06T08:23:11.078Z,99930.76
2023-05-06T08:24:11.082Z,99935.36
2023-05-06T08:25:11.346Z,99933.90
2023-05-06T08:26:11.080Z,99930.95
2023-05-06T08:27:11.077Z,99931.05
2023-05-06T08:28:11.073Z,99930.00
2023-05-06T08:29:11.081Z,99932.37
2023-05-06T08:30:11.083Z,99930.18
2023-05-06T08:31:11.113Z,99931.27
2023-05-06T08:32:11.094Z,99931.09
2023-05-06T08:33:11.089Z,99933.14
2023-05-06T08:34:11.080Z,99931.47
2023-05-06T08:35:11.351Z,99929.43
2023-05-06T08:36:11.090Z,99928.80
2023-05-06T08:37:11.084Z,99929.96
2023-05-06T08:38:11.074Z,99932.91
2023-05-06T08:39:11.087Z,99932.02
2023-05-06T08:40:20.101Z,99931.50
2023-05-06T08:41:11.076Z,99935.09
2023-05-06T08:42:11.080Z,99933.34
2023-05-06T08:43:13.085Z,99933.12
2023-05-06T08:44:13.080Z,99934.88
2023-05-06T08:45:11.232Z,99931.35
2023-05-06T08:46:11.145Z,99929.16
2023-05-06T08:47:11.081Z,99925.60
2023-05-06T08:48:11.084Z,99925.64
2023-05-06T08:49:11.098Z,99926.36
2023-05-06T08:50:11.079Z,99926.31
2023-05-06T08:51:12.084Z,99927.77
2023-05-06T08:52:11.083Z,99927.11
2023-05-06T08:53:13.090Z,99929.80
2023-05-06T08:54:11.075Z,99928.70
2023-05-06T08:55:11.269Z,99930.43
2023-05-06T08:56:12.086Z,99930.03
2023-05-06T08:57:12.645Z,99927.82
2023-05-06T08:58:13.087Z,99927.60
2023-05-06T08:59:12.082Z,99927.71
2023-05-06T09:00:14.085Z,99929.91
2023-05-06T09:01:11.108Z,99927.11
2023-05-06T09:02:11.122Z,99926.10
2023-05-06T09:03:11.159Z,99925.04
2023-05-06T09:04:11.092Z,99925.46
2023-05-06T09:05:11.274Z,99925.73
2023-05-06T09:06:11.082Z,99926.62
2023-05-06T09:07:11.082Z,99925.34
2023-05-06T09:08:11.084Z,99924.95
2023-05-06T09:09:11.093Z,99926.54
2023-05-06T09:10:15.094Z,99928.02
2023-05-06T09:11:19.109Z,99926.11
2023-05-06T09:12:15.085Z,99925.16
2023-05-06T09:13:14.224Z,99924.35
2023-05-06T09:14:15.080Z,99921.50
2023-05-06T09:15:11.385Z,99919.89
2023-05-06T09:16:11.106Z,99922.07
2023-05-06T09:17:17.097Z,99922.56
2023-05-06T09:18:11.160Z,99918.21
2023-05-06T09:19:11.086Z,99916.67
2023-05-06T09:20:13.083Z,99915.51
2023-05-06T09:21:11.090Z,99917.54
2023-05-06T09:22:11.094Z,99915.32
2023-05-06T09:23:12.087Z,99916.75
2023-05-06T09:24:11.090Z,99916.11
2023-05-06T09:25:11.280Z,99911.53
2023-05-06T09:26:11.086Z,99913.34
2023-05-06T09:27:12.325Z,99913.41
2023-05-06T09:28:13.095Z,99912.70
2023-05-06T09:29:11.085Z,99913.19
2023-05-06T09:30:11.092Z,99910.44
2023-05-06T09:31:13.139Z,99908.51
2023-05-06T09:32:14.090Z,99913.21
2023-05-06T09:33:11.123Z,99910.01
2023-05-06T09:34:11.099Z,99908.96
2023-05-06T09:35:11.389Z,99907.69
2023-05-06T09:36:11.087Z,99906.02
2023-05-06T09:37:11.090Z,99903.91
2023-05-06T09:38:11.107Z,99903.59
2023-05-06T09:39:11.094Z,99902.22
2023-05-06T09:40:11.102Z,99900.55
2023-05-06T09:41:11.110Z,99902.32
2023-05-06T09:42:11.092Z,99900.34
2023-05-06T09:43:11.094Z,99903.31
2023-05-06T09:44:11.093Z,99904.46
2023-05-06T09:45:11.404Z,99902.48
2023-05-06T09:46:12.142Z,99902.46
2023-05-06T09:47:11.100Z,99904.58
2023-05-06T09:48:11.111Z,99901.84
2023-05-06T09:49:11.093Z,99902.04
2023-05-06T09:50:11.095Z,99905.11
2023-05-06T09:51:11.095Z,99901.66
2023-05-06T09:52:11.111Z,99899.98
2023-05-06T09:53:11.098Z,99901.73
2023-05-06T09:54:11.096Z,99900.07
2023-05-06T09:55:11.194Z,99897.12
2023-05-06T09:56:11.094Z,99900.36
2023-05-06T09:57:11.098Z,99897.00
2023-05-06T09:58:11.108Z,99899.36
2023-05-06T09:59:11.096Z,99900.30
2023-05-06T10:00:11.098Z,99898.94
2023-05-06T10:01:12.031Z,99897.47
2023-05-06T10:02:12.103Z,99897.73
2023-05-06T10:03:11.141Z,99894.63
2023-05-06T10:04:11.196Z,99894.24
2023-05-06T10:05:13.822Z,99895.10
2023-05-06T10:06:11.066Z,99891.56
2023-05-06T10:07:13.070Z,99889.14
2023-05-06T10:08:11.070Z,99889.06
2023-05-06T10:09:11.062Z,99887.87
2023-05-06T10:10:11.094Z,99889.46
2023-05-06T10:11:11.071Z,99890.04
2023-05-06T10:12:11.068Z,99883.45
2023-05-06T10:13:11.118Z,99887.36
2023-05-06T10:14:11.073Z,99886.06
2023-05-06T10:15:11.363Z,99886.56
2023-05-06T10:16:11.865Z,99886.91
2023-05-06T10:17:11.074Z,99885.38
2023-05-06T10:18:11.163Z,99887.63
2023-05-06T10:19:11.096Z,99887.97
2023-05-06T10:20:13.073Z,99883.11
2023-05-06T10:21:18.076Z,99889.16
2023-05-06T10:22:19.071Z,99882.80
2023-05-06T10:23:21.085Z,99885.75
2023-05-06T10:24:13.076Z,99886.62
2023-05-06T10:25:19.071Z,99883.90
2023-05-06T10:26:12.106Z,99883.78
2023-05-06T10:27:11.110Z,99880.34
2023-05-06T10:28:12.468Z,99881.00
2023-05-06T10:29:14.797Z,99882.04
2023-05-06T10:30:11.073Z,99879.54
2023-05-06T10:31:12.112Z,99880.56
2023-05-06T10:32:11.071Z,99880.62
2023-05-06T10:33:13.077Z,99875.21
2023-05-06T10:34:11.067Z,99879.57
2023-05-06T10:35:18.063Z,99873.59
2023-05-06T10:36:21.070Z,99872.28
2023-05-06T10:37:11.074Z,99874.61
2023-05-06T10:38:14.071Z,99874.73
2023-05-06T10:39:11.068Z,99873.75
2023-05-06T10:40:11.069Z,99870.43
2023-05-06T10:41:11.066Z,99872.41
2023-05-06T10:42:11.064Z,99871.14
2023-05-06T10:43:21.078Z,99870.76
2023-05-06T10:44:11.067Z,99868.87
2023-05-06T10:45:11.342Z,99867.74
2023-05-06T10:46:16.149Z,99871.38
2023-05-06T10:47:11.068Z,99868.90
2023-05-06T10:48:11.064Z,99867.08
2023-05-06T10:49:16.069Z,99870.84
2023-05-06T10:50:19.073Z,99866.05
2023-05-06T10:51:21.066Z,99869.19
2023-05-06T10:52:15.120Z,99870.22
2023-05-06T10:53:11.088Z,99872.40
2023-05-06T10:54:17.069Z,99866.39
2023-05-06T10:55:19.110Z,99872.19
2023-05-06T10:56:11.080Z,99868.26
2023-05-06T10:57:11.068Z,99874.03
2023-05-06T10:58:16.090Z,99872.71
2023-05-06T10:59:11.081Z,99874.54
2023-05-06T11:00:12.077Z,99872.51
2023-05-06T11:01:13.110Z,99873.43
2023-05-06T11:02:11.100Z,99873.53
2023-05-06T11:03:14.202Z,99871.48
2023-05-06T11:04:13.071Z,99869.16
2023-05-06T11:05:11.241Z,99868.08
2023-05-06T11:06:11.075Z,99865.40
2023-05-06T11:07:13.074Z,99865.13
2023-05-06T11:08:11.079Z,99864.84
2023-05-06T11:09:19.097Z,99862.91
2023-05-06T11:10:12.100Z,99861.79
2023-05-06T11:11:19.069Z,99863.51
2023-05-06T11:12:11.075Z,99862.47
2023-05-06T11:13:19.192Z,99862.75
2023-05-06T11:14:21.072Z,99858.34
2023-05-06T11:15:19.075Z,99855.08
2023-05-06T11:16:15.122Z,99854.21
2023-05-06T11:17:15.078Z,99856.23
2023-05-06T11:18:19.089Z,99853.76
2023-05-06T11:19:15.076Z,99854.23
2023-05-06T11:20:19.088Z,99850.62
2023-05-06T11:21:19.078Z,99851.80
2023-05-06T11:22:15.083Z,99851.89
2023-05-06T11:23:11.078Z,99852.88
2023-05-06T11:24:11.087Z,99851.05
2023-05-06T11:25:11.077Z,99847.76
2023-05-06T11:26:11.122Z,99850.30
2023-05-06T11:27:11.074Z,99851.48
2023-05-06T11:28:13.074Z,99850.21
2023-05-06T11:29:11.083Z,99846.39
2023-05-06T11:30:15.097Z,99852.56
2023-05-06T11:31:11.129Z,99854.41
2023-05-06T11:32:19.078Z,99849.56
2023-05-06T11:33:15.087Z,99847.86
2023-05-06T11:34:12.082Z,99849.61
2023-05-06T11:35:11.089Z,99842.80
2023-05-06T11:36:15.080Z,99835.42
2023-05-06T11:37:11.079Z,99841.08
2023-05-06T11:38:11.142Z,99842.33
2023-05-06T11:39:11.097Z,99833.38
2023-05-06T11:40:15.081Z,99829.98
2023-05-06T11:41:11.082Z,99831.99
2023-05-06T11:42:11.076Z,99827.41
2023-05-06T11:43:15.118Z,99825.62
2023-05-06T11:44:11.625Z,99823.00